createdAt,value
2018-08-22T00:01:15.138Z,33.80
2018-08-22T00:03:48.393Z,33.70
2018-08-22T00:06:19.646Z,33.70
2018-08-22T00:08:51.368Z,33.60
2018-08-22T00:11:22.742Z,33.60
2018-08-22T00:13:54.459Z,33.60
2018-08-22T00:16:26.545Z,33.60
2018-08-22T00:18:58.202Z,33.60
2018-08-22T00:21:29.754Z,33.60
2018-08-22T00:24:01.894Z,33.60
2018-08-22T00:26:33.090Z,33.60
2018-08-22T00:29:04.612Z,33.60
2018-08-22T00:31:36.202Z,33.50
2018-08-22T00:34:08.043Z,33.50
2018-08-22T00:36:39.507Z,33.50
2018-08-22T00:39:11.489Z,33.50
2018-08-22T00:41:43.668Z,33.50
2018-08-22T00:44:15.437Z,33.40
2018-08-22T00:46:46.686Z,33.40
2018-08-22T00:49:18.745Z,33.50
2018-08-22T00:51:50.169Z,33.50
2018-08-22T00:54:21.546Z,33.50
2018-08-22T00:56:53.056Z,33.40
2018-08-22T00:59:24.882Z,33.30
2018-08-22T01:01:56.213Z,33.30
2018-08-22T01:04:29.182Z,33.30
2018-08-22T01:07:00.562Z,33.30
2018-08-22T01:09:32.232Z,33.30
2018-08-22T01:12:03.728Z,33.30
2018-08-22T01:14:35.522Z,33.20
2018-08-22T01:17:07.086Z,33.20
2018-08-22T01:19:38.826Z,33.20
2018-08-22T01:22:10.454Z,33.20
2018-08-22T01:24:42.122Z,33.20
2018-08-22T01:27:17.959Z,33.10
2018-08-22T01:29:49.677Z,33.10
2018-08-22T01:32:21.349Z,33.10
2018-08-22T01:34:53.562Z,33.10
2018-08-22T01:37:24.985Z,33.10
2018-08-22T01:39:56.805Z,33.10
2018-08-22T01:42:28.066Z,33.10
2018-08-22T01:44:59.750Z,33.00
2018-08-22T01:47:31.129Z,33.00
2018-08-22T01:50:02.721Z,33.00
2018-08-22T01:52:34.196Z,33.10
2018-08-22T01:55:05.576Z,33.00
2018-08-22T01:57:37.139Z,33.00
2018-08-22T02:00:09.717Z,33.00
2018-08-22T02:02:41.162Z,33.00
2018-08-22T02:05:14.349Z,33.00
2018-08-22T02:07:45.816Z,33.00
2018-08-22T02:10:17.600Z,33.00
2018-08-22T02:12:49.217Z,33.00
2018-08-22T02:15:21.133Z,33.00
2018-08-22T02:17:52.554Z,33.00
2018-08-22T02:20:24.409Z,33.10
2018-08-22T02:22:55.962Z,33.00
2018-08-22T02:25:27.901Z,33.00
2018-08-22T02:27:59.879Z,33.10
2018-08-22T02:30:31.488Z,33.00
2018-08-22T02:33:03.057Z,33.10
2018-08-22T02:35:34.636Z,33.10
2018-08-22T02:38:06.186Z,33.10
2018-08-22T02:40:37.901Z,33.10
2018-08-22T02:43:09.162Z,33.20
2018-08-22T02:45:41.133Z,33.20
2018-08-22T02:48:12.595Z,33.20
2018-08-22T02:50:44.106Z,33.20
2018-08-22T02:53:15.634Z,33.30
2018-08-22T02:55:47.693Z,33.40
2018-08-22T02:58:20.692Z,33.50
2018-08-22T03:00:52.302Z,33.50
2018-08-22T03:03:23.623Z,33.60
2018-08-22T03:05:55.162Z,33.70
2018-08-22T03:08:26.510Z,33.70
2018-08-22T03:10:58.366Z,33.80
2018-08-22T03:13:29.730Z,33.80
2018-08-22T03:16:01.659Z,33.80
2018-08-22T03:18:33.185Z,34.00
2018-08-22T03:21:04.642Z,34.00
2018-08-22T03:23:36.138Z,34.10
2018-08-22T03:26:07.940Z,34.20
2018-08-22T03:28:39.436Z,34.30
2018-08-22T03:31:11.016Z,34.30
2018-08-22T03:33:42.463Z,34.50
2018-08-22T03:36:14.147Z,34.60
2018-08-22T03:38:46.530Z,34.80
2018-08-22T03:41:18.133Z,35.00
2018-08-22T03:43:50.303Z,35.00
2018-08-22T03:46:22.022Z,35.10
2018-08-22T03:48:53.482Z,35.10
2018-08-22T03:51:24.954Z,35.20
2018-08-22T03:53:56.425Z,35.30
2018-08-22T03:56:28.340Z,35.40
2018-08-22T03:58:59.562Z,35.60
2018-08-22T04:01:31.427Z,35.70
2018-08-22T04:04:02.858Z,35.70
2018-08-22T04:06:34.356Z,36.00
2018-08-22T04:09:07.154Z,36.20
2018-08-22T04:11:38.563Z,36.20
2018-08-22T04:14:10.597Z,36.40
2018-08-22T04:16:42.127Z,36.60
2018-08-22T04:19:13.674Z,36.80
2018-08-22T04:21:45.949Z,36.90
2018-08-22T04:24:17.275Z,37.10
2018-08-22T04:26:49.061Z,37.50
2018-08-22T04:29:20.682Z,38.10
2018-08-22T04:31:52.426Z,38.80
2018-08-22T04:34:23.828Z,40.00
2018-08-22T04:36:55.841Z,39.90
2018-08-22T04:39:28.818Z,40.80
2018-08-22T04:42:00.487Z,40.10
2018-08-22T04:44:32.001Z,40.50
2018-08-22T04:47:03.510Z,40.10
2018-08-22T04:49:34.944Z,40.10
2018-08-22T04:52:07.117Z,40.10
2018-08-22T04:54:38.759Z,39.90
2018-08-22T04:57:10.577Z,41.30
2018-08-22T04:59:41.975Z,41.80
2018-08-22T05:02:13.739Z,42.10
2018-08-22T05:04:45.289Z,42.50
2018-08-22T05:07:16.836Z,43.00
2018-08-22T05:09:48.543Z,42.10
2018-08-22T05:12:20.478Z,41.60
2018-08-22T05:14:52.105Z,41.80
2018-08-22T05:17:23.887Z,42.00
2018-08-22T05:19:55.322Z,42.10
2018-08-22T05:22:27.331Z,42.30
2018-08-22T05:24:58.838Z,41.90
2018-08-22T05:27:30.609Z,42.70
2018-08-22T05:30:02.069Z,43.00
2018-08-22T05:32:33.816Z,43.90
2018-08-22T05:35:05.193Z,44.60
2018-08-22T05:37:36.838Z,45.10
2018-08-22T05:40:10.083Z,45.50
2018-08-22T05:42:41.270Z,45.00
2018-08-22T05:45:12.827Z,44.00
2018-08-22T05:47:44.885Z,44.30
2018-08-22T05:50:16.538Z,43.90
2018-08-22T05:52:48.088Z,44.00
2018-08-22T05:55:19.646Z,43.50
2018-08-22T05:57:51.335Z,43.80
2018-08-22T06:00:22.622Z,43.80
2018-08-22T06:02:54.430Z,44.00
2018-08-22T06:05:25.881Z,43.70
2018-08-22T06:07:57.482Z,43.80
2018-08-22T06:10:28.640Z,44.30
2018-08-22T06:13:00.131Z,45.00
2018-08-22T06:15:31.802Z,46.00
2018-08-22T06:18:03.503Z,46.90
2018-08-22T06:20:34.945Z,47.30
2018-08-22T06:23:06.922Z,47.80
2018-08-22T06:25:38.528Z,47.70
2018-08-22T06:28:10.201Z,47.60
2018-08-22T06:30:42.017Z,47.30
2018-08-22T06:33:13.702Z,47.20
2018-08-22T06:35:45.810Z,47.00
2018-08-22T06:38:18.254Z,46.50
2018-08-22T06:40:50.829Z,46.20
2018-08-22T06:43:23.353Z,45.70
2018-08-22T06:45:54.548Z,45.50
2018-08-22T06:48:29.967Z,45.10
2018-08-22T06:51:01.368Z,45.10
2018-08-22T06:53:35.942Z,45.10
2018-08-22T06:56:09.122Z,45.10
2018-08-22T06:58:40.661Z,45.00
2018-08-22T07:01:13.260Z,44.90
2018-08-22T07:03:44.584Z,44.80
2018-08-22T07:06:15.912Z,44.70
2018-08-22T07:08:47.245Z,44.80
2018-08-22T07:11:18.383Z,45.00
2018-08-22T07:13:49.893Z,45.10
2018-08-22T07:16:21.352Z,45.30
2018-08-22T07:18:52.686Z,46.20
2018-08-22T07:21:23.889Z,46.90
2018-08-22T07:23:55.601Z,47.70
2018-08-22T07:26:26.787Z,48.20
2018-08-22T07:28:58.645Z,48.80
2018-08-22T07:31:42.599Z,49.00
2018-08-22T07:34:40.344Z,49.00
2018-08-22T07:37:11.818Z,48.60
2018-08-22T07:39:43.451Z,47.80
2018-08-22T07:42:14.980Z,47.10
2018-08-22T07:44:46.324Z,46.60
2018-08-22T07:47:17.753Z,46.30
2018-08-22T07:49:49.148Z,45.80
2018-08-22T07:52:20.577Z,45.70
2018-08-22T07:54:52.475Z,45.10
2018-08-22T07:57:25.045Z,45.40
2018-08-22T07:59:56.414Z,45.30
2018-08-22T08:02:28.032Z,45.20
2018-08-22T08:04:59.923Z,45.10
2018-08-22T08:07:31.471Z,44.90
2018-08-22T08:10:02.984Z,44.90
2018-08-22T08:12:41.152Z,44.80
2018-08-22T08:15:12.964Z,44.70
2018-08-22T08:17:44.209Z,44.70
2018-08-22T08:20:16.020Z,44.80
2018-08-22T08:22:47.002Z,44.80
2018-08-22T08:25:18.304Z,44.60
2018-08-22T08:27:50.475Z,44.40
2018-08-22T08:30:21.561Z,44.40
2018-08-22T08:32:52.466Z,44.30
2018-08-22T08:35:24.539Z,44.10
2018-08-22T08:37:55.920Z,44.20
2018-08-22T08:40:26.618Z,44.10
2018-08-22T08:42:59.416Z,43.90
2018-08-22T08:45:30.557Z,43.90
2018-08-22T08:48:04.605Z,43.90
2018-08-22T08:50:35.815Z,43.90
2018-08-22T08:53:09.168Z,43.80
2018-08-22T08:55:40.183Z,43.90
2018-08-22T08:58:12.021Z,43.80
2018-08-22T09:00:43.442Z,44.00
2018-08-22T09:03:14.954Z,43.90
2018-08-22T09:05:46.265Z,43.90
2018-08-22T09:08:17.790Z,43.90
2018-08-22T09:10:49.153Z,43.90
2018-08-22T09:13:20.564Z,43.80
2018-08-22T09:15:51.975Z,43.80
2018-08-22T09:18:23.300Z,43.60
2018-08-22T09:20:54.646Z,43.60
2018-08-22T09:23:26.465Z,43.50
2018-08-22T09:25:57.537Z,43.50
2018-08-22T09:28:29.818Z,43.50
2018-08-22T09:31:01.605Z,43.30
2018-08-22T09:33:32.662Z,43.20
2018-08-22T09:36:04.265Z,43.10
2018-08-22T09:38:35.459Z,43.20
2018-08-22T09:41:06.677Z,43.20
2018-08-22T09:43:38.105Z,43.30
2018-08-22T09:46:09.509Z,43.30
2018-08-22T09:48:40.992Z,43.00
2018-08-22T09:51:12.209Z,42.90
2018-08-22T09:53:43.608Z,42.80
2018-08-22T09:56:14.991Z,42.90
2018-08-22T09:58:46.457Z,42.70
2018-08-22T10:01:24.332Z,42.60
2018-08-22T10:04:01.793Z,42.50
2018-08-22T10:06:41.768Z,42.40
2018-08-22T10:09:15.826Z,42.30
2018-08-22T10:11:47.304Z,42.20
2018-08-22T10:14:19.319Z,42.20
2018-08-22T10:16:50.556Z,42.10
2018-08-22T10:19:22.110Z,42.00
2018-08-22T10:21:53.253Z,42.00
2018-08-22T10:24:25.045Z,42.00
2018-08-22T10:26:56.321Z,41.80
2018-08-22T10:29:28.090Z,41.90
2018-08-22T10:31:59.473Z,42.00
2018-08-22T10:34:30.849Z,41.80
2018-08-22T10:37:03.100Z,41.60
2018-08-22T10:39:34.819Z,41.70
2018-08-22T10:42:07.232Z,41.40
2018-08-22T10:44:38.843Z,41.50
2018-08-22T10:47:09.972Z,41.50
2018-08-22T13:00:39.101Z,39.30
2018-08-22T13:06:01.189Z,39.10
2018-08-22T13:11:20.274Z,39.10
2018-08-22T13:13:52.269Z,39.10
2018-08-22T13:16:23.687Z,39.00
2018-08-22T13:18:54.790Z,38.90
2018-08-22T13:21:29.875Z,38.90
2018-08-22T13:24:01.693Z,38.80
2018-08-22T13:26:33.171Z,38.80
2018-08-22T13:29:05.100Z,38.80
2018-08-22T13:31:36.085Z,38.70
2018-08-22T13:34:07.385Z,38.70
2018-08-22T13:36:38.366Z,38.60
2018-08-22T13:39:11.769Z,38.60
2018-08-22T13:41:43.240Z,38.50
2018-08-22T13:44:14.519Z,38.50
2018-08-22T13:46:45.609Z,38.40
2018-08-22T13:49:16.696Z,38.40
2018-08-22T13:51:47.797Z,38.30
2018-08-22T13:54:19.290Z,38.30
2018-08-22T13:56:50.523Z,38.20
2018-08-22T13:59:21.666Z,38.20
2018-08-22T14:02:25.048Z,38.30
2018-08-22T14:05:20.315Z,38.10
2018-08-22T14:07:51.426Z,38.00
2018-08-22T14:44:09.461Z,37.60
2018-08-22T14:46:40.481Z,37.60
2018-08-22T14:52:16.885Z,37.50
2018-08-22T14:54:48.546Z,37.50
2018-08-22T14:57:19.579Z,37.50
2018-08-22T14:59:50.928Z,37.50
2018-08-22T15:02:23.560Z,37.50
2018-08-22T15:04:55.125Z,37.30
2018-08-22T15:07:26.009Z,37.30
2018-08-22T15:09:57.668Z,37.20
2018-08-22T15:12:28.615Z,37.20
2018-08-22T15:14:59.797Z,37.20
2018-08-22T15:17:30.916Z,37.20
2018-08-22T15:20:02.735Z,37.20
2018-08-22T15:22:33.944Z,37.20
2018-08-22T15:25:05.497Z,37.20
2018-08-22T15:27:36.972Z,37.10
2018-08-22T15:30:10.069Z,37.20
2018-08-22T15:32:40.922Z,37.10
2018-08-22T15:35:12.259Z,37.10
2018-08-22T15:37:43.426Z,37.10
2018-08-22T15:40:14.988Z,37.10
2018-08-22T15:42:46.020Z,37.10
2018-08-22T15:45:17.084Z,37.10
2018-08-22T15:47:48.108Z,37.10
2018-08-22T15:50:19.365Z,37.10
2018-08-22T15:52:50.388Z,37.10
2018-08-22T15:55:22.056Z,37.10
2018-08-22T15:58:00.652Z,37.10
2018-08-22T16:00:48.252Z,37.10
2018-08-22T16:03:20.452Z,37.10
2018-08-22T16:05:52.468Z,37.10
2018-08-22T16:08:30.089Z,37.10
2018-08-22T16:11:05.895Z,37.10
2018-08-22T16:13:40.914Z,37.10
2018-08-22T16:16:17.761Z,37.10
2018-08-22T16:18:48.748Z,37.10
2018-08-22T16:21:19.936Z,37.10
2018-08-22T16:23:51.368Z,37.00
2018-08-22T16:26:23.901Z,37.00
2018-08-22T16:28:58.988Z,36.90
2018-08-22T16:31:40.144Z,36.90
2018-08-22T16:34:12.907Z,36.90
2018-08-22T16:36:44.692Z,36.90
2018-08-22T16:39:16.373Z,36.90
2018-08-22T16:41:48.204Z,36.90
2018-08-22T16:44:19.528Z,36.90
2018-08-22T16:46:51.809Z,36.90
2018-08-22T16:49:23.406Z,36.80
2018-08-22T16:51:55.445Z,36.80
2018-08-22T16:56:53.436Z,36.80
2018-08-22T16:59:24.946Z,36.80
2018-08-22T17:01:55.994Z,36.80
2018-08-22T17:04:28.457Z,36.80
2018-08-22T17:07:04.875Z,36.80
2018-08-22T17:09:36.395Z,36.80
2018-08-22T17:12:07.757Z,36.80
2018-08-22T17:14:39.085Z,36.70
2018-08-22T17:17:11.881Z,36.70
2018-08-22T17:19:43.240Z,36.70
2018-08-22T17:22:14.607Z,36.70
2018-08-22T17:24:45.661Z,36.70
2018-08-22T17:27:16.719Z,36.60
2018-08-22T17:29:48.134Z,36.60
2018-08-22T17:32:19.136Z,36.60
2018-08-22T17:34:50.372Z,36.50
2018-08-22T17:37:21.192Z,36.50
2018-08-22T17:39:52.402Z,36.50
2018-08-22T17:42:23.443Z,36.50
2018-08-22T17:44:54.764Z,36.50
2018-08-22T17:47:25.831Z,36.40
2018-08-22T17:50:10.885Z,36.40
2018-08-22T17:52:41.808Z,36.40
2018-08-22T17:55:12.942Z,36.40
2018-08-22T17:57:44.874Z,36.40
2018-08-22T18:00:16.647Z,36.40
2018-08-22T18:02:48.996Z,36.20
2018-08-22T18:05:21.568Z,36.20
2018-08-22T18:07:53.053Z,36.20
2018-08-22T18:10:24.370Z,36.20
2018-08-22T18:12:56.683Z,36.10
2018-08-22T18:15:28.217Z,36.10
2018-08-22T18:17:59.437Z,36.00
2018-08-22T18:20:32.553Z,36.00
2018-08-22T18:23:03.665Z,36.00
2018-08-22T18:25:35.186Z,36.00
2018-08-22T18:28:07.763Z,36.00
2018-08-22T18:30:39.881Z,36.00
2018-08-22T18:33:11.421Z,36.00
2018-08-22T18:35:45.503Z,35.90
2018-08-22T18:38:17.022Z,35.90
2018-08-22T18:40:58.140Z,35.90
2018-08-22T18:43:30.060Z,35.90
2018-08-22T18:46:08.863Z,35.90
2018-08-22T18:48:40.009Z,35.90
2018-08-22T18:51:11.652Z,35.80
2018-08-22T18:53:42.774Z,35.80
2018-08-22T18:56:16.928Z,35.80
2018-08-22T18:58:48.320Z,35.80
2018-08-22T19:01:20.248Z,35.70
2018-08-22T19:03:52.101Z,35.70
2018-08-22T19:06:24.971Z,35.70
2018-08-22T19:08:56.300Z,35.70
2018-08-22T19:11:27.632Z,35.70
2018-08-22T19:13:58.891Z,35.60
2018-08-22T19:16:30.044Z,35.60
2018-08-22T19:19:02.380Z,35.50
2018-08-22T19:21:34.268Z,35.50
2018-08-22T19:24:06.577Z,35.50
2018-08-22T19:26:38.068Z,35.50
2018-08-22T19:29:09.332Z,35.40
2018-08-22T19:31:46.598Z,35.40
2018-08-22T19:34:19.325Z,35.40
2018-08-22T19:36:57.692Z,35.40
2018-08-22T19:39:33.071Z,35.40
2018-08-22T19:42:07.827Z,35.40
2018-08-22T19:44:41.752Z,35.40
2018-08-22T19:47:16.791Z,35.40
2018-08-22T19:49:51.500Z,35.40
2018-08-22T19:52:25.110Z,35.40
2018-08-22T19:54:57.292Z,35.40
2018-08-22T19:57:37.171Z,35.40
2018-08-22T20:00:14.089Z,35.30
2018-08-22T20:02:49.344Z,35.30
2018-08-22T20:05:26.278Z,35.30
2018-08-22T20:08:04.887Z,35.30
2018-08-22T20:10:40.789Z,35.30
2018-08-22T20:13:16.435Z,35.30
2018-08-22T20:15:49.957Z,35.20
2018-08-22T20:18:23.335Z,35.20
2018-08-22T20:20:57.036Z,35.20
2018-08-22T20:23:32.820Z,35.20
2018-08-22T20:26:08.194Z,35.20
2018-08-22T20:28:46.797Z,35.20
2018-08-22T20:31:21.562Z,35.10
2018-08-22T20:34:09.976Z,35.10
2018-08-22T20:36:44.515Z,35.10
2018-08-22T20:39:17.933Z,35.10
2018-08-22T20:41:57.765Z,35.10
2018-08-22T20:44:32.331Z,35.10
2018-08-22T20:47:09.067Z,35.00
2018-08-22T20:49:43.291Z,35.00
2018-08-22T20:52:17.324Z,35.00
2018-08-22T20:54:57.898Z,35.00
2018-08-22T20:57:32.727Z,35.00
2018-08-22T21:00:06.918Z,35.00
2018-08-22T21:02:44.479Z,35.00
2018-08-22T21:05:19.480Z,35.00
2018-08-22T21:07:54.095Z,35.00
2018-08-22T21:10:29.764Z,34.90
2018-08-22T21:13:06.667Z,34.90
2018-08-22T21:15:40.305Z,34.90
2018-08-22T21:18:16.185Z,34.90
2018-08-22T21:20:50.738Z,34.90
2018-08-22T21:23:26.243Z,34.90
2018-08-22T21:26:00.252Z,34.80
2018-08-22T21:28:38.408Z,34.80
2018-08-22T21:31:13.164Z,34.80
2018-08-22T21:33:48.593Z,34.80
2018-08-22T21:36:23.783Z,34.80
2018-08-22T21:38:59.084Z,34.80
2018-08-22T21:41:33.765Z,34.80
2018-08-22T21:44:08.261Z,34.80
2018-08-22T21:46:41.957Z,34.80
2018-08-22T21:49:15.503Z,34.80
2018-08-22T21:51:51.295Z,34.80
2018-08-22T21:54:25.209Z,34.80
2018-08-22T21:57:00.229Z,34.80
2018-08-22T21:59:33.563Z,34.70
2018-08-22T22:02:08.656Z,34.70
2018-08-22T22:04:43.947Z,34.70
2018-08-22T22:07:17.827Z,34.70
2018-08-22T22:09:52.813Z,34.70
2018-08-22T22:12:31.412Z,34.60
2018-08-22T22:15:06.153Z,34.60
2018-08-22T22:17:38.407Z,34.60
2018-08-22T22:20:12.076Z,34.60
2018-08-22T22:22:46.442Z,34.60
2018-08-22T22:25:21.522Z,34.50
2018-08-22T22:27:56.155Z,34.50
2018-08-22T22:30:28.712Z,34.50
2018-08-22T22:33:06.401Z,34.50
2018-08-22T22:35:42.323Z,34.50
2018-08-22T22:38:16.313Z,34.50
2018-08-22T22:40:48.652Z,34.50
2018-08-22T22:43:23.266Z,34.50
2018-08-22T22:45:58.752Z,34.40
2018-08-22T22:48:38.803Z,34.50
2018-08-22T22:51:12.436Z,34.50
2018-08-22T22:53:47.340Z,34.40
2018-08-22T22:56:21.612Z,34.40
2018-08-22T22:58:56.666Z,34.40
2018-08-22T23:01:31.932Z,34.40
2018-08-22T23:04:08.404Z,34.40
2018-08-22T23:06:45.283Z,34.40
2018-08-22T23:09:18.669Z,34.40
2018-08-22T23:11:56.418Z,34.30
2018-08-22T23:14:31.609Z,34.30
2018-08-22T23:17:07.428Z,34.30
2018-08-22T23:19:41.376Z,34.30
2018-08-22T23:22:21.244Z,34.30
2018-08-22T23:24:56.017Z,34.30
2018-08-22T23:27:29.919Z,34.30
2018-08-22T23:30:08.302Z,34.30
2018-08-22T23:32:42.562Z,34.30
2018-08-22T23:35:24.380Z,34.30
2018-08-22T23:38:02.437Z,34.20
2018-08-22T23:40:37.489Z,34.20
2018-08-22T23:43:14.173Z,34.20
2018-08-22T23:45:53.247Z,34.20
2018-08-22T23:48:31.639Z,34.20
2018-08-22T23:51:12.340Z,34.20
2018-08-22T23:53:49.766Z,34.20
2018-08-22T23:56:26.523Z,34.20
2018-08-22T23:59:01.465Z,34.10
